Saturday, October 25, 2014
07:07 UTC
  |  Log In   |  Register Free
Airport Search:

Yellowstone Regional Airport
(KCOD)

Yellowstone Regional Airport Diagram
No Airport Diagram Available

FAA data valid effective September 18, 2014 - November 13, 2014 (unless otherwise noted).

 
 
 
 
 
 
 
 
 
 
 
 
 
 

Current Aviation Weather for Yellowstone Regional Airport (KCOD)

The most recent METAR observation for KCOD was updated at: 0610
METAR Summary (Translated METAR)
KCOD
250555Z 00000KT 10SM CLR 04/00 A3012 RMK AO1 10140 20030 52003
KPOY
250555Z AUTO 26005KT 10SM CLR 06/00 A3011 RMK AO2
(23.1 nm NE from KCOD)
KU68
250555Z AUTO 00000KT 10SM CLR 03/M01 A3010 RMK AO2 PWINO
(34.1 nm NE from KCOD)
TAF Summary (Translated TAF)
KCOD
250520Z 2506/2606 20008KT P6SM SKC FM251800 13007KT P6SM SKC FM260000 20007KT P6SM FEW120 SCT250 FM260400 23011KT P6SM FEW120 SCT250 WS020/25045KT AMD LTD TO CLD VIS AND WIND
  Airport Weather Conditions for KCOD

 Current Weather at COD
39° F
Fair
North winds at 0.0 mph
COD NOAA Radar

Pressure: 30.12 in
Humidity: 75%
Wind: Calm
Dew Point: 32.0°F
Visibility: 10.00 mi


Airport Weather Forecast for KCOD

Translated METAR and TAF for KCOD
Translated METAR for KCOD (0702 UTC 25 October 2014)
found at http://aviationweather.gov/adds/metars/
 
METAR text: KCOD 250655Z 00000KT 10SM CLR 03/00 A3011 RMK AO1
Conditions at: KCOD (CODY , WY, US) observed 0655 UTC 25 October 2014
Temperature: 3.0°C (37°F)
Dewpoint: 0.0°C (32°F) [RH = 81%]
Pressure (altimeter): 30.11 inches Hg (1019.7 mb)
Winds: calm
Visibility: 10 or more miles (16+ km)
Ceiling: at least 12,000 feet AGL
Clouds: sky clear below 12,000 feet AGL
Weather: no significant weather observed at this time
Translated TAF for KCOD
Forecast for: KCOD (CODY , WY, US)
TAF Text: KCOD 250520Z 2506/2606 20008KT P6SM SKC
Forecast period: 0600 to 1800 UTC 25 October 2014
Forecast type: FROM: standard forecast or significant change
Winds: from the SSW (200 degrees) at 9 MPH (8 knots; 4.2 m/s)
Visibility: 6 or more miles (10+ km)
Clouds: clear skies
Weather: no significant weather forecast for this period
TAF Text: FM251800 13007KT P6SM SKC
Forecast period: 1800 UTC 25 October 2014 to 0000 UTC 26 October 2014
Forecast type: FROM: standard forecast or significant change
Winds: from the SE (130 degrees) at 8 MPH (7 knots; 3.6 m/s)
Visibility: 6 or more miles (10+ km)
Clouds: clear skies
Weather: no significant weather forecast for this period
TAF Text: FM260000 20007KT P6SM FEW120 SCT250
Forecast period: 0000 to 0400 UTC 26 October 2014
Forecast type: FROM: standard forecast or significant change
Winds: from the SSW (200 degrees) at 8 MPH (7 knots; 3.6 m/s)
Visibility: 6 or more miles (10+ km)
Clouds: few clouds at 12000 feet AGL
scattered clouds at 25000 feet AGL
Weather: no significant weather forecast for this period
TAF Text: FM260400 23011KT P6SM FEW120 SCT250 WS020/25045KT AMD LTD TO CLD VIS AND WIND
Forecast period: 0400 to 0600 UTC 26 October 2014
Forecast type: FROM: standard forecast or significant change
Winds: from the SW (230 degrees) at 13 MPH (11 knots; 5.7 m/s)
Visibility: 6 or more miles (10+ km)
Clouds: few clouds at 12000 feet AGL
scattered clouds at 25000 feet AGL
Wind shear: at 2000 feet ( 610 m) AGL, from the WSW (250 degrees) at 52 MPH (45 knots; 23.4 m/s)
Weather: no significant weather forecast for this period

Find All Airport Services Find A Hotel Find A Rental Car Find A Golf Course Find A Restaurant $100 Hamburger



FBO's on the Field
FBO Company Facility Photos Services Transportation Aviation Fuel Prices: Prices include tax
Catering Weather Repair Courtesy Rental Type 100LL JetA JetA+ MOGAS 8087
 
Choice Aviation, LLC

This FBO has not yet been rated
FS:Avfuel
Last Updated: Oct-10
Login to update fuel prices
SS:
Contact Choice Aviation, LLCMore FBO Information
 
Add another FBO Facility Photos Catering Weather Repair Courtesy Rental Type 100LL JetA JetA+ MOGAS 8087
Services Transportation Aviation Fuel Prices: Prices include tax


model-print
model-print
model-print
model-print